Due to severe server failure at the provider, not all demo sites are operational. Will take some days to rebuilt everything.

Demonstration site - Click on the  for more information

This is an optional block. Switch it on/off in your settings-file: $SITE['bannerTop'] = false; or $SITE['bannerBottom'] = false;

You can display ads, any other important text or photo’s using text / html or PHP code.

You can place one or more at the top and or bottom and it can all be different for content / size .



Visit our other weather sites:

Template documentation
and downloads

And another site



Nearby METAR Reports

   
EBAW - Antwerp
Updated: 23-09-2019 02:20
Few Clouds  
Few Clouds  
   Wind: South 7.4 km/h
Wind: South 7.4 km/h
Temperature: 16°C
Dew Point: 15°C
Humidity: 94%
Barometer: 1011 hPa
Clouds: Few Clouds
Visibility: More than 10 km
Cloud details: Few Clouds 1200 ft
EBAW 230020Z AUTO 19004KT 9999 // FEW012/// 16/15 Q1011
EBLG - Liège
Updated: 23-09-2019 02:20
Rain, Partly Cloudy  
Rain, Partly Cloudy  
   Wind: SSW 16.7 km/h
Wind: SSW 16.7 km/h
Temperature: 15°C
Dew Point: 14°C
Humidity: 94%
Barometer: 1012 hPa
Clouds: Partly Cloudy
Visibility: 7 km
Cloud details: Few Clouds 1300 ft,
Partly Cloudy 3400 ft
EBLG 230020Z 21009KT 7000 RA FEW013 SCT034 15/14 Q1012 TEMPO 4000 RA BKN012
EBCV - Mons/Bergen
Updated: 23-09-2019 02:25
Overcast  
Overcast  
   Wind: South 13 km/h
Wind: South 13 km/h
Temperature: 16°C
Dew Point: 15°C
Humidity: 94%
Barometer: 1011 hPa
Clouds: Overcast
Visibility: More than 10 km
Cloud details: Overcast 1200 ft
EBCV 230025Z AUTO 18007KT 9999 OVC012/// 16/15 Q1011 GRN
EHBK - Maastricht
Updated: 23-09-2019 02:25
Light Rain, Few Clouds  
Light Rain, Few Clouds  
   Wind: SW 14.8 km/h
Wind: SW 14.8 km/h
Temperature: 15°C
Dew Point: 14°C
Humidity: 94%
Barometer: 1011 hPa
Clouds: Few Clouds
Visibility: More than 10 km
Cloud details: Few Clouds 1500 ft
EHBK 230025Z AUTO 22008KT 9999 -RA FEW015CB 15/14 Q1011
ELLX - Luxemburg
Updated: 23-09-2019 02:20
Light Rain, Overcast  
Light Rain, Overcast  
   Wind: WSW 16.7 km/h
Wind: WSW 16.7 km/h
Temperature: 14°C
Dew Point: 13°C
Humidity: 94%
Barometer: 1014 hPa
Clouds: Overcast
Visibility: 8 km
Cloud details: Few Clouds 600 ft,
Partly Cloudy 1900 ft,
Overcast 6400 ft
ELLX 230020Z AUTO 25009KT 8000 -RA FEW006/// SCT019/// OVC064/// 14/13 Q1014 RERA NOSIG
EBOS - Oostende
Updated: 23-09-2019 02:20
Partly Cloudy  
Partly Cloudy  
   Wind: South 9.3 km/h
Wind: South 9.3 km/h
Temperature: 15°C
Dew Point: 13°C
Humidity: 88%
Barometer: 1010 hPa
Clouds: Partly Cloudy
Visibility: More than 10 km
Cloud details: Few Clouds 2000 ft,
Partly Cloudy 4000 ft
EBOS 230020Z 17005KT 9999 FEW020 SCT040 15/13 Q1010 NOSIG

Script developed by  Saratoga-weather.org Adapted for the template by  Weerstation Leuven

This is an optional block. Switch it on/off in your settings-file: $SITE['bannerTop'] = false; or $SITE['bannerBottom'] = false;

You can display ads, any other important text or photo’s using text / html or PHP code.

You can place one or more at the top and or bottom and it can all be different for content / size .